sensor_id;sensor_type;location;lat;lon;timestamp;temperature;humidity
33831;DHT22;20137;48.834;8.732;2023-02-22T00:00:19;6.30;99.90
33831;DHT22;20137;48.834;8.732;2023-02-22T00:02:55;6.30;99.90
33831;DHT22;20137;48.834;8.732;2023-02-22T00:05:26;6.20;99.90
33831;DHT22;20137;48.834;8.732;2023-02-22T00:07:52;6.20;99.90
33831;DHT22;20137;48.834;8.732;2023-02-22T00:10:21;6.20;99.90
33831;DHT22;20137;48.834;8.732;2023-02-22T00:12:49;6.20;99.90
33831;DHT22;20137;48.834;8.732;2023-02-22T00:15:18;6.20;99.90
33831;DHT22;20137;48.834;8.732;2023-02-22T00:17:44;6.20;99.90
33831;DHT22;20137;48.834;8.732;2023-02-22T00:20:11;6.20;99.90
33831;DHT22;20137;48.834;8.732;2023-02-22T00:22:42;6.30;99.90
33831;DHT22;20137;48.834;8.732;2023-02-22T00:25:09;6.50;99.90
33831;DHT22;20137;48.834;8.732;2023-02-22T00:27:35;6.50;99.90
33831;DHT22;20137;48.834;8.732;2023-02-22T00:30:05;6.50;99.90
33831;DHT22;20137;48.834;8.732;2023-02-22T00:32:31;6.60;99.90
33831;DHT22;20137;48.834;8.732;2023-02-22T00:34:57;6.60;99.90
33831;DHT22;20137;48.834;8.732;2023-02-22T00:37:22;6.60;99.90
33831;DHT22;20137;48.834;8.732;2023-02-22T00:39:49;6.50;99.90
33831;DHT22;20137;48.834;8.732;2023-02-22T00:42:17;6.40;99.90
33831;DHT22;20137;48.834;8.732;2023-02-22T00:44:43;6.30;99.90
33831;DHT22;20137;48.834;8.732;2023-02-22T00:47:09;6.40;99.90
33831;DHT22;20137;48.834;8.732;2023-02-22T00:49:35;6.40;99.90
33831;DHT22;20137;48.834;8.732;2023-02-22T00:52:01;6.40;99.90
33831;DHT22;20137;48.834;8.732;2023-02-22T00:54:27;6.50;99.90
33831;DHT22;20137;48.834;8.732;2023-02-22T00:56:53;6.50;99.90
33831;DHT22;20137;48.834;8.732;2023-02-22T00:59:18;6.60;99.90
33831;DHT22;20137;48.834;8.732;2023-02-22T01:01:44;6.70;99.90
33831;DHT22;20137;48.834;8.732;2023-02-22T01:04:10;6.70;99.90
33831;DHT22;20137;48.834;8.732;2023-02-22T01:06:38;6.70;99.90
33831;DHT22;20137;48.834;8.732;2023-02-22T01:09:04;6.80;99.90
33831;DHT22;20137;48.834;8.732;2023-02-22T01:11:32;6.90;99.90
33831;DHT22;20137;48.834;8.732;2023-02-22T01:13:57;6.90;99.90
33831;DHT22;20137;48.834;8.732;2023-02-22T01:16:24;6.90;99.90
33831;DHT22;20137;48.834;8.732;2023-02-22T01:18:49;7.00;99.90
33831;DHT22;20137;48.834;8.732;2023-02-22T01:21:15;7.00;99.90
33831;DHT22;20137;48.834;8.732;2023-02-22T01:23:43;7.00;99.90
33831;DHT22;20137;48.834;8.732;2023-02-22T01:26:10;7.00;99.90
33831;DHT22;20137;48.834;8.732;2023-02-22T01:28:36;7.10;99.90
33831;DHT22;20137;48.834;8.732;2023-02-22T01:31:03;7.10;99.90
33831;DHT22;20137;48.834;8.732;2023-02-22T01:33:29;7.10;99.90
33831;DHT22;20137;48.834;8.732;2023-02-22T01:35:55;7.20;99.90
33831;DHT22;20137;48.834;8.732;2023-02-22T01:38:20;7.20;99.90
33831;DHT22;20137;48.834;8.732;2023-02-22T01:40:48;7.30;99.90
33831;DHT22;20137;48.834;8.732;2023-02-22T01:43:24;7.30;99.90
33831;DHT22;20137;48.834;8.732;2023-02-22T01:48:27;7.40;99.90
33831;DHT22;20137;48.834;8.732;2023-02-22T01:53:51;7.40;99.90
33831;DHT22;20137;48.834;8.732;2023-02-22T01:56:18;7.50;99.90
33831;DHT22;20137;48.834;8.732;2023-02-22T01:58:51;7.50;99.90
33831;DHT22;20137;48.834;8.732;2023-02-22T02:01:21;7.50;99.90
33831;DHT22;20137;48.834;8.732;2023-02-22T02:03:48;7.40;99.90
33831;DHT22;20137;48.834;8.732;2023-02-22T02:06:15;7.40;99.90
33831;DHT22;20137;48.834;8.732;2023-02-22T02:09:08;7.30;99.90
33831;DHT22;20137;48.834;8.732;2023-02-22T02:11:35;7.30;99.90
33831;DHT22;20137;48.834;8.732;2023-02-22T02:14:06;7.40;99.90
33831;DHT22;20137;48.834;8.732;2023-02-22T02:19:08;7.40;99.90
33831;DHT22;20137;48.834;8.732;2023-02-22T02:38:50;7.30;99.90
33831;DHT22;20137;48.834;8.732;2023-02-22T02:41:46;7.40;99.90
33831;DHT22;20137;48.834;8.732;2023-02-22T02:44:30;7.30;99.90
33831;DHT22;20137;48.834;8.732;2023-02-22T02:49:32;7.40;99.90
33831;DHT22;20137;48.834;8.732;2023-02-22T02:52:01;7.40;99.90
33831;DHT22;20137;48.834;8.732;2023-02-22T02:54:28;7.40;99.90
33831;DHT22;20137;48.834;8.732;2023-02-22T02:56:56;7.40;99.90
33831;DHT22;20137;48.834;8.732;2023-02-22T02:59:28;7.40;99.90
33831;DHT22;20137;48.834;8.732;2023-02-22T03:08:15;7.40;99.90
33831;DHT22;20137;48.834;8.732;2023-02-22T03:26:16;7.60;99.90
33831;DHT22;20137;48.834;8.732;2023-02-22T03:28:45;7.60;99.90
33831;DHT22;20137;48.834;8.732;2023-02-22T03:31:22;7.50;99.90
33831;DHT22;20137;48.834;8.732;2023-02-22T03:34:02;7.50;99.90
33831;DHT22;20137;48.834;8.732;2023-02-22T03:36:36;7.60;99.90
33831;DHT22;20137;48.834;8.732;2023-02-22T03:39:06;7.60;99.90
33831;DHT22;20137;48.834;8.732;2023-02-22T03:41:35;7.60;99.90
33831;DHT22;20137;48.834;8.732;2023-02-22T03:44:09;7.60;99.90
33831;DHT22;20137;48.834;8.732;2023-02-22T03:46:38;7.50;99.90
33831;DHT22;20137;48.834;8.732;2023-02-22T03:49:26;7.60;99.90
33831;DHT22;20137;48.834;8.732;2023-02-22T03:51:56;7.60;99.90
33831;DHT22;20137;48.834;8.732;2023-02-22T03:54:22;7.60;99.90
33831;DHT22;20137;48.834;8.732;2023-02-22T03:56:57;7.60;99.90
33831;DHT22;20137;48.834;8.732;2023-02-22T03:59:26;7.60;99.90
33831;DHT22;20137;48.834;8.732;2023-02-22T04:01:53;7.50;99.90
33831;DHT22;20137;48.834;8.732;2023-02-22T04:04:20;7.40;99.90
33831;DHT22;20137;48.834;8.732;2023-02-22T04:06:46;7.30;99.90
33831;DHT22;20137;48.834;8.732;2023-02-22T04:09:13;7.30;99.90
33831;DHT22;20137;48.834;8.732;2023-02-22T04:11:39;7.30;99.90
33831;DHT22;20137;48.834;8.732;2023-02-22T04:14:04;7.40;99.90
33831;DHT22;20137;48.834;8.732;2023-02-22T04:16:31;7.30;99.90
33831;DHT22;20137;48.834;8.732;2023-02-22T04:18:57;7.30;99.90
33831;DHT22;20137;48.834;8.732;2023-02-22T04:21:22;7.20;99.90
33831;DHT22;20137;48.834;8.732;2023-02-22T04:23:48;7.10;99.90
33831;DHT22;20137;48.834;8.732;2023-02-22T04:26:14;7.10;99.90
33831;DHT22;20137;48.834;8.732;2023-02-22T04:28:40;7.10;99.90
33831;DHT22;20137;48.834;8.732;2023-02-22T04:31:06;7.00;99.90
33831;DHT22;20137;48.834;8.732;2023-02-22T04:33:31;7.10;99.90
33831;DHT22;20137;48.834;8.732;2023-02-22T04:35:57;7.00;99.90
33831;DHT22;20137;48.834;8.732;2023-02-22T04:38:24;7.00;99.90
33831;DHT22;20137;48.834;8.732;2023-02-22T04:40:51;7.00;99.90
33831;DHT22;20137;48.834;8.732;2023-02-22T04:43:17;7.00;99.90
33831;DHT22;20137;48.834;8.732;2023-02-22T04:45:43;7.00;99.90
33831;DHT22;20137;48.834;8.732;2023-02-22T04:48:08;7.00;99.90
33831;DHT22;20137;48.834;8.732;2023-02-22T04:50:34;7.00;99.90
33831;DHT22;20137;48.834;8.732;2023-02-22T04:53:00;6.90;99.90
33831;DHT22;20137;48.834;8.732;2023-02-22T04:55:26;7.10;99.90
33831;DHT22;20137;48.834;8.732;2023-02-22T04:57:53;7.00;99.90
33831;DHT22;20137;48.834;8.732;2023-02-22T05:00:19;7.00;99.90
33831;DHT22;20137;48.834;8.732;2023-02-22T05:02:46;7.10;99.90
33831;DHT22;20137;48.834;8.732;2023-02-22T05:05:17;7.00;99.90
33831;DHT22;20137;48.834;8.732;2023-02-22T05:07:43;7.00;99.90
33831;DHT22;20137;48.834;8.732;2023-02-22T05:10:10;7.10;99.90
33831;DHT22;20137;48.834;8.732;2023-02-22T05:12:36;7.10;99.90
33831;DHT22;20137;48.834;8.732;2023-02-22T05:15:03;7.20;99.90
33831;DHT22;20137;48.834;8.732;2023-02-22T05:17:28;7.10;99.90
33831;DHT22;20137;48.834;8.732;2023-02-22T05:19:54;7.00;99.90
33831;DHT22;20137;48.834;8.732;2023-02-22T05:22:19;7.00;99.90
33831;DHT22;20137;48.834;8.732;2023-02-22T05:24:45;6.90;99.90
33831;DHT22;20137;48.834;8.732;2023-02-22T05:27:11;6.80;99.90
33831;DHT22;20137;48.834;8.732;2023-02-22T05:29:37;6.70;99.90
33831;DHT22;20137;48.834;8.732;2023-02-22T05:32:03;6.70;99.90
33831;DHT22;20137;48.834;8.732;2023-02-22T05:34:31;6.60;99.90
33831;DHT22;20137;48.834;8.732;2023-02-22T05:36:56;6.50;99.90
33831;DHT22;20137;48.834;8.732;2023-02-22T05:39:22;6.50;99.90
33831;DHT22;20137;48.834;8.732;2023-02-22T05:41:47;6.40;99.90
33831;DHT22;20137;48.834;8.732;2023-02-22T05:44:13;6.30;99.90
33831;DHT22;20137;48.834;8.732;2023-02-22T05:46:39;6.00;99.90
33831;DHT22;20137;48.834;8.732;2023-02-22T05:49:04;5.90;99.90
33831;DHT22;20137;48.834;8.732;2023-02-22T05:51:30;5.50;99.90
33831;DHT22;20137;48.834;8.732;2023-02-22T05:53:56;5.30;99.90
33831;DHT22;20137;48.834;8.732;2023-02-22T05:56:26;5.00;99.90
33831;DHT22;20137;48.834;8.732;2023-02-22T05:58:52;4.90;99.90
33831;DHT22;20137;48.834;8.732;2023-02-22T06:01:18;4.80;99.90
33831;DHT22;20137;48.834;8.732;2023-02-22T06:03:51;4.70;99.90
33831;DHT22;20137;48.834;8.732;2023-02-22T06:06:18;5.00;99.90
33831;DHT22;20137;48.834;8.732;2023-02-22T06:08:45;5.10;99.90
33831;DHT22;20137;48.834;8.732;2023-02-22T06:11:11;5.20;99.90
33831;DHT22;20137;48.834;8.732;2023-02-22T06:13:37;5.20;99.90
33831;DHT22;20137;48.834;8.732;2023-02-22T06:16:04;5.10;99.90
33831;DHT22;20137;48.834;8.732;2023-02-22T06:18:30;5.10;99.90
33831;DHT22;20137;48.834;8.732;2023-02-22T06:20:59;5.00;99.90
33831;DHT22;20137;48.834;8.732;2023-02-22T06:23:25;5.00;99.90
33831;DHT22;20137;48.834;8.732;2023-02-22T06:25:51;5.00;99.90
33831;DHT22;20137;48.834;8.732;2023-02-22T06:28:17;5.00;99.90
33831;DHT22;20137;48.834;8.732;2023-02-22T06:30:43;5.00;99.90
33831;DHT22;20137;48.834;8.732;2023-02-22T06:33:09;5.00;99.90
33831;DHT22;20137;48.834;8.732;2023-02-22T06:35:36;5.00;99.90
33831;DHT22;20137;48.834;8.732;2023-02-22T06:38:02;5.00;99.90
33831;DHT22;20137;48.834;8.732;2023-02-22T06:40:27;5.10;99.90
33831;DHT22;20137;48.834;8.732;2023-02-22T06:42:54;5.20;99.90
33831;DHT22;20137;48.834;8.732;2023-02-22T06:45:20;5.10;99.90
33831;DHT22;20137;48.834;8.732;2023-02-22T06:47:47;5.10;99.90
33831;DHT22;20137;48.834;8.732;2023-02-22T06:50:32;5.10;99.90
33831;DHT22;20137;48.834;8.732;2023-02-22T06:52:58;5.10;99.90
33831;DHT22;20137;48.834;8.732;2023-02-22T06:55:26;5.10;99.90
33831;DHT22;20137;48.834;8.732;2023-02-22T06:57:52;5.20;99.90
33831;DHT22;20137;48.834;8.732;2023-02-22T07:00:20;5.30;99.90
33831;DHT22;20137;48.834;8.732;2023-02-22T07:02:46;5.40;99.90
33831;DHT22;20137;48.834;8.732;2023-02-22T07:05:17;5.60;99.90
33831;DHT22;20137;48.834;8.732;2023-02-22T07:07:43;5.80;99.90
33831;DHT22;20137;48.834;8.732;2023-02-22T07:10:23;6.00;99.90
33831;DHT22;20137;48.834;8.732;2023-02-22T07:12:49;6.20;99.90
33831;DHT22;20137;48.834;8.732;2023-02-22T07:15:17;6.30;99.90
33831;DHT22;20137;48.834;8.732;2023-02-22T07:17:44;6.40;99.90
33831;DHT22;20137;48.834;8.732;2023-02-22T07:20:09;6.50;99.90
33831;DHT22;20137;48.834;8.732;2023-02-22T07:22:36;6.80;99.90
33831;DHT22;20137;48.834;8.732;2023-02-22T07:25:07;6.90;99.90
33831;DHT22;20137;48.834;8.732;2023-02-22T07:27:37;7.00;99.90
33831;DHT22;20137;48.834;8.732;2023-02-22T07:30:04;7.10;99.90
33831;DHT22;20137;48.834;8.732;2023-02-22T07:32:30;7.20;99.90
33831;DHT22;20137;48.834;8.732;2023-02-22T07:34:56;7.30;99.90
33831;DHT22;20137;48.834;8.732;2023-02-22T07:37:22;7.40;99.90
33831;DHT22;20137;48.834;8.732;2023-02-22T07:39:48;7.50;99.90
33831;DHT22;20137;48.834;8.732;2023-02-22T07:42:14;7.60;99.90
33831;DHT22;20137;48.834;8.732;2023-02-22T07:44:39;7.70;99.90
33831;DHT22;20137;48.834;8.732;2023-02-22T07:47:05;7.70;99.90
33831;DHT22;20137;48.834;8.732;2023-02-22T07:49:30;7.70;99.90
33831;DHT22;20137;48.834;8.732;2023-02-22T07:51:56;7.70;99.90
33831;DHT22;20137;48.834;8.732;2023-02-22T07:54:22;7.90;99.90
33831;DHT22;20137;48.834;8.732;2023-02-22T07:56:48;8.10;99.90
33831;DHT22;20137;48.834;8.732;2023-02-22T07:59:14;8.20;99.90
33831;DHT22;20137;48.834;8.732;2023-02-22T08:01:40;8.30;99.90
33831;DHT22;20137;48.834;8.732;2023-02-22T08:04:06;8.40;99.90
33831;DHT22;20137;48.834;8.732;2023-02-22T08:06:32;8.60;99.90
33831;DHT22;20137;48.834;8.732;2023-02-22T08:08:58;8.70;99.90
33831;DHT22;20137;48.834;8.732;2023-02-22T08:11:24;8.70;99.90
33831;DHT22;20137;48.834;8.732;2023-02-22T08:13:50;8.80;99.90
33831;DHT22;20137;48.834;8.732;2023-02-22T08:16:16;8.90;99.90
33831;DHT22;20137;48.834;8.732;2023-02-22T08:18:41;9.00;99.90
33831;DHT22;20137;48.834;8.732;2023-02-22T08:21:07;8.90;99.90
33831;DHT22;20137;48.834;8.732;2023-02-22T08:23:33;9.00;99.90
33831;DHT22;20137;48.834;8.732;2023-02-22T08:26:10;9.10;99.90
33831;DHT22;20137;48.834;8.732;2023-02-22T08:28:40;9.20;99.90
33831;DHT22;20137;48.834;8.732;2023-02-22T08:31:06;9.30;99.90
33831;DHT22;20137;48.834;8.732;2023-02-22T08:33:33;9.60;99.90
33831;DHT22;20137;48.834;8.732;2023-02-22T08:36:00;9.90;99.90
33831;DHT22;20137;48.834;8.732;2023-02-22T08:38:30;10.20;99.90
33831;DHT22;20137;48.834;8.732;2023-02-22T08:40:58;10.40;99.90
33831;DHT22;20137;48.834;8.732;2023-02-22T08:43:24;10.70;99.90
33831;DHT22;20137;48.834;8.732;2023-02-22T08:45:50;10.90;99.90
33831;DHT22;20137;48.834;8.732;2023-02-22T08:48:16;11.10;99.90
33831;DHT22;20137;48.834;8.732;2023-02-22T08:50:42;11.20;99.90
33831;DHT22;20137;48.834;8.732;2023-02-22T08:53:09;11.30;99.90
33831;DHT22;20137;48.834;8.732;2023-02-22T08:55:37;11.40;99.90
33831;DHT22;20137;48.834;8.732;2023-02-22T08:58:04;11.30;99.90
33831;DHT22;20137;48.834;8.732;2023-02-22T09:00:34;11.40;99.90
33831;DHT22;20137;48.834;8.732;2023-02-22T09:03:04;11.30;99.90
33831;DHT22;20137;48.834;8.732;2023-02-22T09:05:31;11.40;99.90
33831;DHT22;20137;48.834;8.732;2023-02-22T09:07:57;11.50;99.90
33831;DHT22;20137;48.834;8.732;2023-02-22T09:10:26;11.50;99.90
33831;DHT22;20137;48.834;8.732;2023-02-22T09:12:53;11.50;99.90
33831;DHT22;20137;48.834;8.732;2023-02-22T09:15:23;11.60;99.90
33831;DHT22;20137;48.834;8.732;2023-02-22T09:17:49;11.60;99.90
33831;DHT22;20137;48.834;8.732;2023-02-22T09:20:17;11.60;99.90
33831;DHT22;20137;48.834;8.732;2023-02-22T09:22:44;11.50;99.90
33831;DHT22;20137;48.834;8.732;2023-02-22T09:25:11;11.50;99.90
33831;DHT22;20137;48.834;8.732;2023-02-22T09:27:37;11.60;99.90
33831;DHT22;20137;48.834;8.732;2023-02-22T09:30:05;11.60;99.90
33831;DHT22;20137;48.834;8.732;2023-02-22T09:32:31;11.70;99.90
33831;DHT22;20137;48.834;8.732;2023-02-22T09:34:56;11.70;99.90
33831;DHT22;20137;48.834;8.732;2023-02-22T09:37:22;11.70;99.90
33831;DHT22;20137;48.834;8.732;2023-02-22T09:39:48;11.80;99.90
33831;DHT22;20137;48.834;8.732;2023-02-22T09:45:07;11.80;99.90
33831;DHT22;20137;48.834;8.732;2023-02-22T09:47:49;11.80;99.90
33831;DHT22;20137;48.834;8.732;2023-02-22T09:50:21;11.90;99.90
33831;DHT22;20137;48.834;8.732;2023-02-22T09:55:45;11.80;99.90
33831;DHT22;20137;48.834;8.732;2023-02-22T09:58:27;12.00;99.90
33831;DHT22;20137;48.834;8.732;2023-02-22T10:01:21;12.10;99.90
33831;DHT22;20137;48.834;8.732;2023-02-22T10:04:03;12.20;99.90
33831;DHT22;20137;48.834;8.732;2023-02-22T10:06:31;12.30;99.90
33831;DHT22;20137;48.834;8.732;2023-02-22T10:09:00;12.30;99.90
33831;DHT22;20137;48.834;8.732;2023-02-22T10:14:44;12.30;99.90
33831;DHT22;20137;48.834;8.732;2023-02-22T10:17:20;12.20;99.90
33831;DHT22;20137;48.834;8.732;2023-02-22T10:20:01;12.20;99.90
33831;DHT22;20137;48.834;8.732;2023-02-22T10:25:16;12.30;99.90
33831;DHT22;20137;48.834;8.732;2023-02-22T10:27:58;12.30;99.90
33831;DHT22;20137;48.834;8.732;2023-02-22T10:30:50;12.30;99.90
33831;DHT22;20137;48.834;8.732;2023-02-22T10:33:32;12.40;99.90
33831;DHT22;20137;48.834;8.732;2023-02-22T10:35:59;12.50;99.90
33831;DHT22;20137;48.834;8.732;2023-02-22T10:38:25;12.60;99.90
33831;DHT22;20137;48.834;8.732;2023-02-22T10:43:42;12.40;99.90
33831;DHT22;20137;48.834;8.732;2023-02-22T10:46:12;12.50;99.90
33831;DHT22;20137;48.834;8.732;2023-02-22T10:48:41;12.60;99.90
33831;DHT22;20137;48.834;8.732;2023-02-22T10:51:09;12.80;99.90
33831;DHT22;20137;48.834;8.732;2023-02-22T10:53:36;12.70;99.90
33831;DHT22;20137;48.834;8.732;2023-02-22T10:56:20;12.90;99.90
33831;DHT22;20137;48.834;8.732;2023-02-22T10:58:57;12.90;99.90
33831;DHT22;20137;48.834;8.732;2023-02-22T11:04:19;12.80;99.90
33831;DHT22;20137;48.834;8.732;2023-02-22T11:07:07;12.90;99.90
33831;DHT22;20137;48.834;8.732;2023-02-22T11:09:46;13.10;99.90
33831;DHT22;20137;48.834;8.732;2023-02-22T11:12:18;13.30;99.90
33831;DHT22;20137;48.834;8.732;2023-02-22T11:14:45;13.20;99.90
33831;DHT22;20137;48.834;8.732;2023-02-22T11:17:17;13.30;99.90
33831;DHT22;20137;48.834;8.732;2023-02-22T11:19:47;13.20;99.90
33831;DHT22;20137;48.834;8.732;2023-02-22T11:22:40;13.20;99.90
33831;DHT22;20137;48.834;8.732;2023-02-22T11:25:07;13.20;99.90
33831;DHT22;20137;48.834;8.732;2023-02-22T11:27:37;13.10;99.90
33831;DHT22;20137;48.834;8.732;2023-02-22T11:30:28;13.00;99.90
33831;DHT22;20137;48.834;8.732;2023-02-22T11:38:31;13.30;99.90
33831;DHT22;20137;48.834;8.732;2023-02-22T11:41:18;13.40;99.90
33831;DHT22;20137;48.834;8.732;2023-02-22T11:43:48;13.40;99.90
33831;DHT22;20137;48.834;8.732;2023-02-22T11:46:20;13.50;99.90
33831;DHT22;20137;48.834;8.732;2023-02-22T11:49:02;13.10;99.90
33831;DHT22;20137;48.834;8.732;2023-02-22T11:52:07;13.20;99.90
33831;DHT22;20137;48.834;8.732;2023-02-22T11:57:34;13.30;99.90
33831;DHT22;20137;48.834;8.732;2023-02-22T12:05:43;13.70;99.90
33831;DHT22;20137;48.834;8.732;2023-02-22T12:11:19;13.70;99.90
33831;DHT22;20137;48.834;8.732;2023-02-22T12:13:58;13.60;99.90
33831;DHT22;20137;48.834;8.732;2023-02-22T12:21:51;13.60;99.90
33831;DHT22;20137;48.834;8.732;2023-02-22T12:24:21;13.70;99.90
33831;DHT22;20137;48.834;8.732;2023-02-22T12:26:54;13.80;99.90
33831;DHT22;20137;48.834;8.732;2023-02-22T12:29:34;13.60;99.90
33831;DHT22;20137;48.834;8.732;2023-02-22T12:32:11;13.80;99.90
33831;DHT22;20137;48.834;8.732;2023-02-22T12:34:47;13.60;99.90
33831;DHT22;20137;48.834;8.732;2023-02-22T12:40:20;13.50;99.90
33831;DHT22;20137;48.834;8.732;2023-02-22T12:45:42;13.60;99.90
33831;DHT22;20137;48.834;8.732;2023-02-22T12:51:00;13.50;99.90
33831;DHT22;20137;48.834;8.732;2023-02-22T12:53:33;13.50;99.90
33831;DHT22;20137;48.834;8.732;2023-02-22T12:58:41;13.40;99.90
33831;DHT22;20137;48.834;8.732;2023-02-22T13:01:20;13.20;99.90
33831;DHT22;20137;48.834;8.732;2023-02-22T13:03:46;13.40;99.90
33831;DHT22;20137;48.834;8.732;2023-02-22T13:06:19;13.40;99.90
33831;DHT22;20137;48.834;8.732;2023-02-22T13:12:03;13.40;99.90
33831;DHT22;20137;48.834;8.732;2023-02-22T13:19:58;13.50;99.90
33831;DHT22;20137;48.834;8.732;2023-02-22T13:22:38;13.60;99.90
33831;DHT22;20137;48.834;8.732;2023-02-22T13:25:16;13.70;99.90
33831;DHT22;20137;48.834;8.732;2023-02-22T13:27:52;13.80;99.90
33831;DHT22;20137;48.834;8.732;2023-02-22T13:30:40;13.70;99.90
33831;DHT22;20137;48.834;8.732;2023-02-22T13:39:03;13.80;99.90
33831;DHT22;20137;48.834;8.732;2023-02-22T13:44:31;13.90;99.90
33831;DHT22;20137;48.834;8.732;2023-02-22T13:52:10;13.70;99.90
33831;DHT22;20137;48.834;8.732;2023-02-22T13:54:41;13.80;99.90
33831;DHT22;20137;48.834;8.732;2023-02-22T13:57:35;13.70;99.90
33831;DHT22;20137;48.834;8.732;2023-02-22T14:08:00;13.60;99.90
33831;DHT22;20137;48.834;8.732;2023-02-22T14:13:11;13.30;99.90
33831;DHT22;20137;48.834;8.732;2023-02-22T14:18:38;13.50;99.90
33831;DHT22;20137;48.834;8.732;2023-02-22T14:21:13;13.30;99.90
33831;DHT22;20137;48.834;8.732;2023-02-22T14:23:48;13.40;99.90
33831;DHT22;20137;48.834;8.732;2023-02-22T14:26:26;13.40;99.90
33831;DHT22;20137;48.834;8.732;2023-02-22T14:28:56;13.40;99.90
33831;DHT22;20137;48.834;8.732;2023-02-22T14:34:03;13.30;99.90
33831;DHT22;20137;48.834;8.732;2023-02-22T14:41:50;13.20;99.90
33831;DHT22;20137;48.834;8.732;2023-02-22T14:44:23;13.00;99.90
33831;DHT22;20137;48.834;8.732;2023-02-22T14:46:51;13.00;99.90
33831;DHT22;20137;48.834;8.732;2023-02-22T14:49:20;12.90;99.90
33831;DHT22;20137;48.834;8.732;2023-02-22T14:51:55;12.90;99.90
33831;DHT22;20137;48.834;8.732;2023-02-22T14:54:33;12.70;99.90
33831;DHT22;20137;48.834;8.732;2023-02-22T14:57:26;12.70;99.90
33831;DHT22;20137;48.834;8.732;2023-02-22T15:00:12;12.70;99.90
33831;DHT22;20137;48.834;8.732;2023-02-22T15:02:45;12.80;99.90
33831;DHT22;20137;48.834;8.732;2023-02-22T15:05:14;12.90;99.90
33831;DHT22;20137;48.834;8.732;2023-02-22T15:07:53;12.80;99.90
33831;DHT22;20137;48.834;8.732;2023-02-22T15:10:28;12.80;99.90
33831;DHT22;20137;48.834;8.732;2023-02-22T15:12:57;12.70;99.90
33831;DHT22;20137;48.834;8.732;2023-02-22T15:15:34;12.60;99.90
33831;DHT22;20137;48.834;8.732;2023-02-22T15:18:00;12.50;99.90
33831;DHT22;20137;48.834;8.732;2023-02-22T15:20:26;12.40;99.90
33831;DHT22;20137;48.834;8.732;2023-02-22T15:22:58;12.40;99.90
33831;DHT22;20137;48.834;8.732;2023-02-22T15:25:27;12.30;99.90
33831;DHT22;20137;48.834;8.732;2023-02-22T15:27:59;12.20;99.90
33831;DHT22;20137;48.834;8.732;2023-02-22T15:30:28;12.00;99.90
33831;DHT22;20137;48.834;8.732;2023-02-22T15:32:54;11.90;99.90
33831;DHT22;20137;48.834;8.732;2023-02-22T15:35:31;11.90;99.90
33831;DHT22;20137;48.834;8.732;2023-02-22T15:38:18;11.80;99.90
33831;DHT22;20137;48.834;8.732;2023-02-22T15:40:45;11.70;99.90
33831;DHT22;20137;48.834;8.732;2023-02-22T15:43:21;11.60;99.90
33831;DHT22;20137;48.834;8.732;2023-02-22T15:45:53;11.60;99.90
33831;DHT22;20137;48.834;8.732;2023-02-22T15:48:20;11.50;99.90
33831;DHT22;20137;48.834;8.732;2023-02-22T15:53:42;11.50;99.90
33831;DHT22;20137;48.834;8.732;2023-02-22T15:56:15;11.40;99.90
33831;DHT22;20137;48.834;8.732;2023-02-22T15:58:43;11.30;99.90
33831;DHT22;20137;48.834;8.732;2023-02-22T16:01:13;11.20;99.90
33831;DHT22;20137;48.834;8.732;2023-02-22T16:03:45;11.10;99.90
33831;DHT22;20137;48.834;8.732;2023-02-22T16:06:16;11.10;99.90
33831;DHT22;20137;48.834;8.732;2023-02-22T16:08:50;11.00;99.90
33831;DHT22;20137;48.834;8.732;2023-02-22T16:11:31;11.00;99.90
33831;DHT22;20137;48.834;8.732;2023-02-22T16:14:01;10.90;99.90
33831;DHT22;20137;48.834;8.732;2023-02-22T16:16:38;10.80;99.90
33831;DHT22;20137;48.834;8.732;2023-02-22T16:19:26;10.80;99.90
33831;DHT22;20137;48.834;8.732;2023-02-22T16:21:55;10.70;99.90
33831;DHT22;20137;48.834;8.732;2023-02-22T16:24:30;10.60;99.90
33831;DHT22;20137;48.834;8.732;2023-02-22T16:27:16;10.50;99.90
33831;DHT22;20137;48.834;8.732;2023-02-22T16:29:43;10.40;99.90
33831;DHT22;20137;48.834;8.732;2023-02-22T16:32:09;10.30;99.90
33831;DHT22;20137;48.834;8.732;2023-02-22T16:34:36;10.20;99.90
33831;DHT22;20137;48.834;8.732;2023-02-22T16:37:01;10.20;99.90
33831;DHT22;20137;48.834;8.732;2023-02-22T16:39:31;10.20;99.90
33831;DHT22;20137;48.834;8.732;2023-02-22T16:42:03;10.10;99.90
33831;DHT22;20137;48.834;8.732;2023-02-22T16:44:29;9.90;99.90
33831;DHT22;20137;48.834;8.732;2023-02-22T16:46:57;9.90;99.90
33831;DHT22;20137;48.834;8.732;2023-02-22T16:49:23;9.80;99.90
33831;DHT22;20137;48.834;8.732;2023-02-22T16:51:55;9.80;99.90
33831;DHT22;20137;48.834;8.732;2023-02-22T16:54:32;9.60;99.90
33831;DHT22;20137;48.834;8.732;2023-02-22T16:57:00;9.50;99.90
33831;DHT22;20137;48.834;8.732;2023-02-22T16:59:27;9.50;99.90
33831;DHT22;20137;48.834;8.732;2023-02-22T17:01:52;9.30;99.90
33831;DHT22;20137;48.834;8.732;2023-02-22T17:04:20;9.30;99.90
33831;DHT22;20137;48.834;8.732;2023-02-22T17:06:47;8.90;99.90
33831;DHT22;20137;48.834;8.732;2023-02-22T17:09:13;9.10;99.90
33831;DHT22;20137;48.834;8.732;2023-02-22T17:11:45;9.20;99.90
33831;DHT22;20137;48.834;8.732;2023-02-22T17:14:17;9.00;99.90
33831;DHT22;20137;48.834;8.732;2023-02-22T17:16:44;9.10;99.90
33831;DHT22;20137;48.834;8.732;2023-02-22T17:19:18;9.10;99.90
33831;DHT22;20137;48.834;8.732;2023-02-22T17:21:44;9.20;99.90
33831;DHT22;20137;48.834;8.732;2023-02-22T17:24:12;9.20;99.90
33831;DHT22;20137;48.834;8.732;2023-02-22T17:26:39;9.30;99.90
33831;DHT22;20137;48.834;8.732;2023-02-22T17:29:05;9.40;99.90
33831;DHT22;20137;48.834;8.732;2023-02-22T17:31:31;9.30;99.90
33831;DHT22;20137;48.834;8.732;2023-02-22T17:34:00;9.30;99.90
33831;DHT22;20137;48.834;8.732;2023-02-22T17:36:30;9.20;99.90
33831;DHT22;20137;48.834;8.732;2023-02-22T17:38:56;9.10;99.90
33831;DHT22;20137;48.834;8.732;2023-02-22T17:41:22;9.00;99.90
33831;DHT22;20137;48.834;8.732;2023-02-22T17:43:48;9.00;99.90
33831;DHT22;20137;48.834;8.732;2023-02-22T17:46:13;9.10;99.90
33831;DHT22;20137;48.834;8.732;2023-02-22T17:48:39;9.10;99.90
33831;DHT22;20137;48.834;8.732;2023-02-22T17:51:06;9.00;99.90
33831;DHT22;20137;48.834;8.732;2023-02-22T17:53:32;9.10;99.90
33831;DHT22;20137;48.834;8.732;2023-02-22T17:56:07;9.00;99.90
33831;DHT22;20137;48.834;8.732;2023-02-22T17:58:33;9.00;99.90
33831;DHT22;20137;48.834;8.732;2023-02-22T18:00:59;9.00;99.90
33831;DHT22;20137;48.834;8.732;2023-02-22T18:03:26;8.90;99.90
33831;DHT22;20137;48.834;8.732;2023-02-22T18:05:54;8.90;99.90
33831;DHT22;20137;48.834;8.732;2023-02-22T18:08:22;8.90;99.90
33831;DHT22;20137;48.834;8.732;2023-02-22T18:10:49;8.80;99.90
33831;DHT22;20137;48.834;8.732;2023-02-22T18:13:21;8.80;99.90
33831;DHT22;20137;48.834;8.732;2023-02-22T18:15:47;8.80;99.90
33831;DHT22;20137;48.834;8.732;2023-02-22T18:18:14;8.70;99.90
33831;DHT22;20137;48.834;8.732;2023-02-22T18:20:42;8.70;99.90
33831;DHT22;20137;48.834;8.732;2023-02-22T18:23:14;8.70;99.90